Suva, Fiji

5:41 AM FJT on August 24, 2014 (GMT +1200)
Nausori International | Change Station
CLOSE
Current Station
Airport
Location: Nausori,
Elevation: 16 ft
Nearby Weather Stations

Elev 16 ft 18.04 °S, 178.56 °E | Updated 41 minutes ago

Mostly Cloudy
Mostly Cloudy
70 °F
Feels Like 70 °F
N
6
Wind Variable Wind from SE

Today
High -- | Low -- °F
--% Chance of Precip.
Yesterday
High -- | Low -- °F
Precip. -- in
6:20 AM 5:57 PM
Waning Crescent, 3% visible
Pressure 30.04 in
Visibility 6.2 miles
Clouds Mostly Cloudy 3000 ft
Mostly Cloudy 4500 ft
Dew Point 64 °F
Humidity 83%
Rainfall 0.00 in
Snow Depth Not available.
UV 0 out of 12
Pollen Not available.
Air Quality Not available.
Flu Activity Not available.
METAR NFNA 231700Z 14005KT 9999 BKN030 BKN045 21/18 Q1017

More Conditions Fewer Conditions

Pressure 30.04 in
Visibility 6.2 miles
Clouds Mostly Cloudy 3000 ft
Mostly Cloudy 4500 ft
Dew Point 64 °F
Humidity 83%
Rainfall 0.00 in
Snow Depth Not available.
UV 0 out of 12
Pollen Not available.
Air Quality Not available.
Flu Activity Not available.
METAR NFNA 231700Z 14005KT 9999 BKN030 BKN045 21/18 Q1017

More Conditions Fewer Conditions

10-Day Weather Forecast

Almanac

Astronomy

Aug. 24, 2014 Rise Set
Actual Time 6:20 AM FJT 5:57 PM FJT
Civil Twilight 5:58 AM FJT 6:19 PM FJT
Nautical Twilight 5:32 AM FJT 6:45 PM FJT
Astronomical Twilight 5:07 AM FJT 7:10 PM FJT
Moon 5:00 AM FJT (8/24) 4:47 PM FJT (8/24)
Length of Visible Light 12h 21m
Length of Day
11h 37m
Tomorrow will be 0m 56s longer.
Waning Crescent, 3% of the Moon is Illuminated
Aug 23
Waning Crescent
Aug 25
New
Sep 2
First Quarter
Sep 8
Full
Sep 15
Last Quarter

Yesterday's Extremes

Country Highs Country Lows

Community

WunderPhotos

Upload Photos

1,746,537 photos uploaded!

WunderBlogs® & News

By Dr. Jeff Masters
Director of Meteorology, Weather Underground
By Kari Strenfel
Meteorologist, Weather Underground
By Christopher C. Burt
Weather Historian, Weather Underground
August 23, 2014
August 23, 2014
August 23, 2014

Nearby

Snow Depth

Not available.

Earthquake Activity

City Distance Mag. Time & Date
No recent earthquake activity has been reported nearby.
Minimum magnitude displayed is 2.5.

Coastal Water Temperatures

Place Temperature
No Stations Reporting

Nearby Weather Stations